sensor_id;sensor_type;location;lat;lon;timestamp;temperature;humidity
43991;DHT22;29654;50.784;20.604;2023-07-30T00:00:30;24.70;52.70
43991;DHT22;29654;50.784;20.604;2023-07-30T00:05:34;24.70;52.80
43991;DHT22;29654;50.784;20.604;2023-07-30T00:10:37;24.70;53.00
43991;DHT22;29654;50.784;20.604;2023-07-30T00:15:39;24.60;52.90
43991;DHT22;29654;50.784;20.604;2023-07-30T00:20:43;24.50;52.90
43991;DHT22;29654;50.784;20.604;2023-07-30T00:25:46;24.50;53.10
43991;DHT22;29654;50.784;20.604;2023-07-30T00:30:49;24.40;53.00
43991;DHT22;29654;50.784;20.604;2023-07-30T00:35:53;24.40;53.00
43991;DHT22;29654;50.784;20.604;2023-07-30T00:40:56;24.30;53.20
43991;DHT22;29654;50.784;20.604;2023-07-30T00:45:58;24.30;53.20
43991;DHT22;29654;50.784;20.604;2023-07-30T00:51:03;24.20;53.30
43991;DHT22;29654;50.784;20.604;2023-07-30T00:56:06;24.10;53.60
43991;DHT22;29654;50.784;20.604;2023-07-30T01:01:10;24.10;53.60
43991;DHT22;29654;50.784;20.604;2023-07-30T01:06:14;24.00;53.70
43991;DHT22;29654;50.784;20.604;2023-07-30T01:11:18;24.00;53.90
43991;DHT22;29654;50.784;20.604;2023-07-30T01:16:20;24.00;53.90
43991;DHT22;29654;50.784;20.604;2023-07-30T01:21:24;24.00;53.90
43991;DHT22;29654;50.784;20.604;2023-07-30T01:26:32;24.00;54.10
43991;DHT22;29654;50.784;20.604;2023-07-30T01:31:40;23.90;54.30
43991;DHT22;29654;50.784;20.604;2023-07-30T01:36:45;23.90;54.30
43991;DHT22;29654;50.784;20.604;2023-07-30T01:41:49;23.90;54.40
43991;DHT22;29654;50.784;20.604;2023-07-30T01:46:52;23.80;54.30
43991;DHT22;29654;50.784;20.604;2023-07-30T01:51:55;23.90;54.50
43991;DHT22;29654;50.784;20.604;2023-07-30T01:57:00;23.90;54.70
43991;DHT22;29654;50.784;20.604;2023-07-30T02:02:03;23.90;54.60
43991;DHT22;29654;50.784;20.604;2023-07-30T02:07:09;23.90;54.60
43991;DHT22;29654;50.784;20.604;2023-07-30T02:12:11;24.00;54.80
43991;DHT22;29654;50.784;20.604;2023-07-30T02:17:14;24.00;54.70
43991;DHT22;29654;50.784;20.604;2023-07-30T02:22:18;24.00;54.80
43991;DHT22;29654;50.784;20.604;2023-07-30T02:27:21;24.00;54.90
43991;DHT22;29654;50.784;20.604;2023-07-30T02:32:23;24.10;54.80
43991;DHT22;29654;50.784;20.604;2023-07-30T02:37:27;24.10;54.80
43991;DHT22;29654;50.784;20.604;2023-07-30T02:42:30;24.10;54.80
43991;DHT22;29654;50.784;20.604;2023-07-30T02:47:32;24.10;54.80
43991;DHT22;29654;50.784;20.604;2023-07-30T02:52:37;24.00;54.80
43991;DHT22;29654;50.784;20.604;2023-07-30T02:57:40;24.10;55.00
43991;DHT22;29654;50.784;20.604;2023-07-30T03:02:42;24.00;54.90
43991;DHT22;29654;50.784;20.604;2023-07-30T03:07:46;24.10;55.00
43991;DHT22;29654;50.784;20.604;2023-07-30T03:12:49;24.00;55.00
43991;DHT22;29654;50.784;20.604;2023-07-30T03:17:52;24.10;54.90
43991;DHT22;29654;50.784;20.604;2023-07-30T03:22:56;24.10;54.90
43991;DHT22;29654;50.784;20.604;2023-07-30T03:27:59;24.10;54.90
43991;DHT22;29654;50.784;20.604;2023-07-30T03:33:01;24.10;54.90
43991;DHT22;29654;50.784;20.604;2023-07-30T03:38:05;24.10;55.00
43991;DHT22;29654;50.784;20.604;2023-07-30T03:43:08;24.10;55.10
43991;DHT22;29654;50.784;20.604;2023-07-30T03:48:11;24.10;55.10
43991;DHT22;29654;50.784;20.604;2023-07-30T03:53:16;24.10;55.20
43991;DHT22;29654;50.784;20.604;2023-07-30T03:58:18;24.20;55.40
43991;DHT22;29654;50.784;20.604;2023-07-30T04:03:21;24.30;55.40
43991;DHT22;29654;50.784;20.604;2023-07-30T04:08:25;24.50;55.60
43991;DHT22;29654;50.784;20.604;2023-07-30T04:13:28;24.60;55.60
43991;DHT22;29654;50.784;20.604;2023-07-30T04:18:30;24.80;55.50
43991;DHT22;29654;50.784;20.604;2023-07-30T04:23:34;24.90;55.30
43991;DHT22;29654;50.784;20.604;2023-07-30T04:28:37;25.10;55.10
43991;DHT22;29654;50.784;20.604;2023-07-30T04:33:40;25.20;54.70
43991;DHT22;29654;50.784;20.604;2023-07-30T04:38:44;25.20;54.50
43991;DHT22;29654;50.784;20.604;2023-07-30T04:43:47;25.30;54.60
43991;DHT22;29654;50.784;20.604;2023-07-30T04:48:50;25.20;54.30
43991;DHT22;29654;50.784;20.604;2023-07-30T04:53:55;25.20;54.20
43991;DHT22;29654;50.784;20.604;2023-07-30T04:58:58;25.20;54.30
43991;DHT22;29654;50.784;20.604;2023-07-30T05:04:00;25.10;54.30
43991;DHT22;29654;50.784;20.604;2023-07-30T05:09:05;25.10;54.50
43991;DHT22;29654;50.784;20.604;2023-07-30T05:14:07;25.00;54.80
43991;DHT22;29654;50.784;20.604;2023-07-30T05:19:10;25.00;54.90
43991;DHT22;29654;50.784;20.604;2023-07-30T05:24:13;25.00;55.00
43991;DHT22;29654;50.784;20.604;2023-07-30T05:29:16;25.00;55.30
43991;DHT22;29654;50.784;20.604;2023-07-30T05:34:19;25.10;55.60
43991;DHT22;29654;50.784;20.604;2023-07-30T05:39:23;25.20;55.60
43991;DHT22;29654;50.784;20.604;2023-07-30T05:44:25;25.40;56.00
43991;DHT22;29654;50.784;20.604;2023-07-30T05:49:28;25.60;55.80
43991;DHT22;29654;50.784;20.604;2023-07-30T05:54:31;25.80;55.40
43991;DHT22;29654;50.784;20.604;2023-07-30T05:59:34;25.90;55.00
43991;DHT22;29654;50.784;20.604;2023-07-30T06:04:37;25.90;54.70
43991;DHT22;29654;50.784;20.604;2023-07-30T06:09:40;26.00;55.00
43991;DHT22;29654;50.784;20.604;2023-07-30T06:14:43;26.20;55.10
43991;DHT22;29654;50.784;20.604;2023-07-30T06:19:45;26.30;54.80
43991;DHT22;29654;50.784;20.604;2023-07-30T06:24:50;26.50;54.60
43991;DHT22;29654;50.784;20.604;2023-07-30T06:29:53;26.60;54.30
43991;DHT22;29654;50.784;20.604;2023-07-30T06:34:55;26.70;54.50
43991;DHT22;29654;50.784;20.604;2023-07-30T06:40:00;26.90;54.40
43991;DHT22;29654;50.784;20.604;2023-07-30T06:45:06;27.20;54.00
43991;DHT22;29654;50.784;20.604;2023-07-30T06:50:10;27.40;54.10
43991;DHT22;29654;50.784;20.604;2023-07-30T06:55:14;27.70;53.70
43991;DHT22;29654;50.784;20.604;2023-07-30T07:00:17;27.80;53.00
43991;DHT22;29654;50.784;20.604;2023-07-30T07:05:22;28.10;52.70
43991;DHT22;29654;50.784;20.604;2023-07-30T07:10:27;28.30;52.50
43991;DHT22;29654;50.784;20.604;2023-07-30T07:15:29;28.40;52.00
43991;DHT22;29654;50.784;20.604;2023-07-30T07:20:32;28.60;52.00
43991;DHT22;29654;50.784;20.604;2023-07-30T07:25:36;28.80;52.10
43991;DHT22;29654;50.784;20.604;2023-07-30T07:30:38;28.90;51.40
43991;DHT22;29654;50.784;20.604;2023-07-30T07:35:42;29.10;51.00
43991;DHT22;29654;50.784;20.604;2023-07-30T07:40:46;29.20;50.60
43991;DHT22;29654;50.784;20.604;2023-07-30T07:45:49;29.30;50.20
43991;DHT22;29654;50.784;20.604;2023-07-30T07:50:52;29.40;49.80
43991;DHT22;29654;50.784;20.604;2023-07-30T07:55:55;29.40;49.60
43991;DHT22;29654;50.784;20.604;2023-07-30T08:00:59;29.50;49.20
43991;DHT22;29654;50.784;20.604;2023-07-30T08:06:02;29.40;49.00
43991;DHT22;29654;50.784;20.604;2023-07-30T08:11:09;29.40;49.40
43991;DHT22;29654;50.784;20.604;2023-07-30T08:16:12;29.50;48.60
43991;DHT22;29654;50.784;20.604;2023-07-30T08:21:14;29.60;49.50
43991;DHT22;29654;50.784;20.604;2023-07-30T08:26:19;29.80;49.40
43991;DHT22;29654;50.784;20.604;2023-07-30T08:31:22;30.00;48.50
43991;DHT22;29654;50.784;20.604;2023-07-30T08:36:25;30.20;48.40
43991;DHT22;29654;50.784;20.604;2023-07-30T08:41:29;30.30;47.90
43991;DHT22;29654;50.784;20.604;2023-07-30T08:46:32;30.50;47.40
43991;DHT22;29654;50.784;20.604;2023-07-30T08:51:36;30.50;47.20
43991;DHT22;29654;50.784;20.604;2023-07-30T08:56:43;30.70;46.60
43991;DHT22;29654;50.784;20.604;2023-07-30T09:01:47;30.70;46.60
43991;DHT22;29654;50.784;20.604;2023-07-30T09:06:53;30.80;46.10
43991;DHT22;29654;50.784;20.604;2023-07-30T09:12:00;30.80;46.20
43991;DHT22;29654;50.784;20.604;2023-07-30T09:17:03;30.90;45.60
43991;DHT22;29654;50.784;20.604;2023-07-30T09:22:06;31.00;46.00
43991;DHT22;29654;50.784;20.604;2023-07-30T09:27:11;31.10;45.30
43991;DHT22;29654;50.784;20.604;2023-07-30T09:32:13;31.20;45.00
43991;DHT22;29654;50.784;20.604;2023-07-30T09:37:17;31.30;45.20
43991;DHT22;29654;50.784;20.604;2023-07-30T09:42:26;31.40;44.50
43991;DHT22;29654;50.784;20.604;2023-07-30T09:47:30;31.50;43.50
43991;DHT22;29654;50.784;20.604;2023-07-30T09:52:34;31.60;43.70
43991;DHT22;29654;50.784;20.604;2023-07-30T09:57:39;31.70;43.50
43991;DHT22;29654;50.784;20.604;2023-07-30T10:02:46;31.80;43.10
43991;DHT22;29654;50.784;20.604;2023-07-30T10:07:53;31.90;42.10
43991;DHT22;29654;50.784;20.604;2023-07-30T10:13:09;31.90;42.20
43991;DHT22;29654;50.784;20.604;2023-07-30T10:18:13;31.90;42.30
43991;DHT22;29654;50.784;20.604;2023-07-30T10:23:15;32.00;42.20
43991;DHT22;29654;50.784;20.604;2023-07-30T10:28:31;32.10;42.80
43991;DHT22;29654;50.784;20.604;2023-07-30T10:33:44;32.30;41.80
43991;DHT22;29654;50.784;20.604;2023-07-30T10:38:48;32.40;41.50
43991;DHT22;29654;50.784;20.604;2023-07-30T10:43:53;32.50;42.30
43991;DHT22;29654;50.784;20.604;2023-07-30T10:48:56;32.70;41.30
43991;DHT22;29654;50.784;20.604;2023-07-30T10:53:59;32.80;41.60
43991;DHT22;29654;50.784;20.604;2023-07-30T10:59:03;32.90;41.30
43991;DHT22;29654;50.784;20.604;2023-07-30T11:04:10;33.00;40.70
43991;DHT22;29654;50.784;20.604;2023-07-30T11:09:18;32.90;40.50
43991;DHT22;29654;50.784;20.604;2023-07-30T11:14:25;32.90;40.40
43991;DHT22;29654;50.784;20.604;2023-07-30T11:19:29;32.80;40.00
43991;DHT22;29654;50.784;20.604;2023-07-30T11:24:34;32.70;40.30
43991;DHT22;29654;50.784;20.604;2023-07-30T11:29:39;32.60;40.40
43991;DHT22;29654;50.784;20.604;2023-07-30T11:34:41;32.60;40.40
43991;DHT22;29654;50.784;20.604;2023-07-30T11:39:44;32.70;40.60
43991;DHT22;29654;50.784;20.604;2023-07-30T11:44:49;32.70;40.30
43991;DHT22;29654;50.784;20.604;2023-07-30T11:49:56;32.60;39.60
43991;DHT22;29654;50.784;20.604;2023-07-30T11:55:02;32.50;39.40
43991;DHT22;29654;50.784;20.604;2023-07-30T12:00:08;32.40;39.60
43991;DHT22;29654;50.784;20.604;2023-07-30T12:05:16;32.20;39.70
43991;DHT22;29654;50.784;20.604;2023-07-30T12:10:19;32.10;40.00
43991;DHT22;29654;50.784;20.604;2023-07-30T12:15:24;32.00;40.30
43991;DHT22;29654;50.784;20.604;2023-07-30T12:20:27;32.00;40.30
43991;DHT22;29654;50.784;20.604;2023-07-30T12:25:30;32.00;40.50
43991;DHT22;29654;50.784;20.604;2023-07-30T12:30:34;32.00;40.40
43991;DHT22;29654;50.784;20.604;2023-07-30T12:35:37;32.00;40.20
43991;DHT22;29654;50.784;20.604;2023-07-30T12:40:40;32.00;40.30
43991;DHT22;29654;50.784;20.604;2023-07-30T12:45:44;31.90;40.20
43991;DHT22;29654;50.784;20.604;2023-07-30T12:50:46;31.80;40.00
43991;DHT22;29654;50.784;20.604;2023-07-30T12:55:49;31.70;40.20
43991;DHT22;29654;50.784;20.604;2023-07-30T13:00:53;31.60;40.50
43991;DHT22;29654;50.784;20.604;2023-07-30T13:05:56;31.50;40.60
43991;DHT22;29654;50.784;20.604;2023-07-30T13:10:58;31.40;40.60
43991;DHT22;29654;50.784;20.604;2023-07-30T13:16:03;31.30;40.70
43991;DHT22;29654;50.784;20.604;2023-07-30T13:21:06;31.30;40.90
43991;DHT22;29654;50.784;20.604;2023-07-30T13:26:08;31.40;41.20
43991;DHT22;29654;50.784;20.604;2023-07-30T13:31:12;31.40;40.90
43991;DHT22;29654;50.784;20.604;2023-07-30T13:36:15;31.50;41.30
43991;DHT22;29654;50.784;20.604;2023-07-30T13:41:24;31.60;40.70
43991;DHT22;29654;50.784;20.604;2023-07-30T13:46:28;31.70;41.00
43991;DHT22;29654;50.784;20.604;2023-07-30T13:51:31;31.90;40.70
43991;DHT22;29654;50.784;20.604;2023-07-30T13:56:34;32.00;40.60
43991;DHT22;29654;50.784;20.604;2023-07-30T14:01:40;32.00;40.20
43991;DHT22;29654;50.784;20.604;2023-07-30T14:06:43;32.20;40.10
43991;DHT22;29654;50.784;20.604;2023-07-30T14:11:46;32.20;40.20
43991;DHT22;29654;50.784;20.604;2023-07-30T14:16:49;32.30;39.80
43991;DHT22;29654;50.784;20.604;2023-07-30T14:21:52;32.40;40.00
43991;DHT22;29654;50.784;20.604;2023-07-30T14:26:54;32.50;40.10
43991;DHT22;29654;50.784;20.604;2023-07-30T14:31:58;32.50;40.20
43991;DHT22;29654;50.784;20.604;2023-07-30T14:37:01;32.60;40.20
43991;DHT22;29654;50.784;20.604;2023-07-30T14:42:04;32.70;40.10
43991;DHT22;29654;50.784;20.604;2023-07-30T14:47:08;32.70;39.40
43991;DHT22;29654;50.784;20.604;2023-07-30T14:52:11;32.70;39.00
43991;DHT22;29654;50.784;20.604;2023-07-30T14:57:14;32.70;38.90
43991;DHT22;29654;50.784;20.604;2023-07-30T15:02:18;32.80;39.20
43991;DHT22;29654;50.784;20.604;2023-07-30T15:07:21;32.70;39.70
43991;DHT22;29654;50.784;20.604;2023-07-30T15:12:26;32.70;39.90
43991;DHT22;29654;50.784;20.604;2023-07-30T15:17:30;32.80;40.00
43991;DHT22;29654;50.784;20.604;2023-07-30T15:22:33;32.80;40.10
43991;DHT22;29654;50.784;20.604;2023-07-30T15:27:35;32.80;39.50
43991;DHT22;29654;50.784;20.604;2023-07-30T15:32:42;32.80;40.00
43991;DHT22;29654;50.784;20.604;2023-07-30T15:37:45;32.80;40.00
43991;DHT22;29654;50.784;20.604;2023-07-30T15:42:48;32.70;40.20
43991;DHT22;29654;50.784;20.604;2023-07-30T15:47:52;32.70;40.70
43991;DHT22;29654;50.784;20.604;2023-07-30T15:52:54;32.70;41.00
43991;DHT22;29654;50.784;20.604;2023-07-30T15:57:57;32.60;41.30
43991;DHT22;29654;50.784;20.604;2023-07-30T16:03:02;32.50;41.20
43991;DHT22;29654;50.784;20.604;2023-07-30T16:08:06;32.50;41.10
43991;DHT22;29654;50.784;20.604;2023-07-30T16:13:09;32.40;40.90
43991;DHT22;29654;50.784;20.604;2023-07-30T16:18:14;32.40;41.10
43991;DHT22;29654;50.784;20.604;2023-07-30T16:23:16;32.30;41.70
43991;DHT22;29654;50.784;20.604;2023-07-30T16:28:19;32.30;41.30
43991;DHT22;29654;50.784;20.604;2023-07-30T16:33:23;32.30;41.30
43991;DHT22;29654;50.784;20.604;2023-07-30T16:38:25;32.20;41.50
43991;DHT22;29654;50.784;20.604;2023-07-30T16:43:28;32.20;41.30
43991;DHT22;29654;50.784;20.604;2023-07-30T16:48:32;32.20;41.40
43991;DHT22;29654;50.784;20.604;2023-07-30T16:53:34;32.30;41.30
43991;DHT22;29654;50.784;20.604;2023-07-30T16:58:38;32.40;41.20
43991;DHT22;29654;50.784;20.604;2023-07-30T17:03:42;32.40;40.90
43991;DHT22;29654;50.784;20.604;2023-07-30T17:08:45;32.40;40.40
43991;DHT22;29654;50.784;20.604;2023-07-30T17:13:48;32.30;40.20
43991;DHT22;29654;50.784;20.604;2023-07-30T17:18:52;32.20;40.50
43991;DHT22;29654;50.784;20.604;2023-07-30T17:23:55;32.10;40.50
43991;DHT22;29654;50.784;20.604;2023-07-30T17:28:57;32.00;41.20
43991;DHT22;29654;50.784;20.604;2023-07-30T17:34:01;31.80;41.30
43991;DHT22;29654;50.784;20.604;2023-07-30T17:39:04;31.70;41.50
43991;DHT22;29654;50.784;20.604;2023-07-30T17:44:07;31.50;41.80
43991;DHT22;29654;50.784;20.604;2023-07-30T17:49:11;31.30;42.00
43991;DHT22;29654;50.784;20.604;2023-07-30T17:54:13;31.10;42.30
43991;DHT22;29654;50.784;20.604;2023-07-30T17:59:16;30.80;42.20
43991;DHT22;29654;50.784;20.604;2023-07-30T18:04:22;30.60;41.90
43991;DHT22;29654;50.784;20.604;2023-07-30T18:09:25;30.30;41.60
43991;DHT22;29654;50.784;20.604;2023-07-30T18:14:27;29.70;42.40
43991;DHT22;29654;50.784;20.604;2023-07-30T18:19:34;29.00;42.50
43991;DHT22;29654;50.784;20.604;2023-07-30T18:24:36;28.40;43.60
43991;DHT22;29654;50.784;20.604;2023-07-30T18:29:39;27.70;44.00
43991;DHT22;29654;50.784;20.604;2023-07-30T18:34:43;27.20;44.90
43991;DHT22;29654;50.784;20.604;2023-07-30T18:39:46;26.90;45.90
43991;DHT22;29654;50.784;20.604;2023-07-30T18:44:52;26.60;46.30
43991;DHT22;29654;50.784;20.604;2023-07-30T18:49:57;26.50;47.80
43991;DHT22;29654;50.784;20.604;2023-07-30T18:55:00;26.40;47.80
43991;DHT22;29654;50.784;20.604;2023-07-30T19:00:03;26.20;48.00
43991;DHT22;29654;50.784;20.604;2023-07-30T19:05:08;26.20;48.30
43991;DHT22;29654;50.784;20.604;2023-07-30T19:10:11;26.10;48.40
43991;DHT22;29654;50.784;20.604;2023-07-30T19:15:14;26.00;48.50
43991;DHT22;29654;50.784;20.604;2023-07-30T19:20:18;25.90;48.70
43991;DHT22;29654;50.784;20.604;2023-07-30T19:25:20;25.90;49.10
43991;DHT22;29654;50.784;20.604;2023-07-30T19:30:23;25.80;49.20
43991;DHT22;29654;50.784;20.604;2023-07-30T19:35:28;25.80;49.50
43991;DHT22;29654;50.784;20.604;2023-07-30T19:40:31;25.70;49.70
43991;DHT22;29654;50.784;20.604;2023-07-30T19:45:34;25.60;49.90
43991;DHT22;29654;50.784;20.604;2023-07-30T19:50:38;25.60;50.00
43991;DHT22;29654;50.784;20.604;2023-07-30T19:55:41;25.50;50.20
43991;DHT22;29654;50.784;20.604;2023-07-30T20:00:45;25.40;50.80
43991;DHT22;29654;50.784;20.604;2023-07-30T20:05:49;25.40;50.40
43991;DHT22;29654;50.784;20.604;2023-07-30T20:10:52;25.30;50.60
43991;DHT22;29654;50.784;20.604;2023-07-30T20:15:55;25.30;50.60
43991;DHT22;29654;50.784;20.604;2023-07-30T20:21:00;25.20;50.60
43991;DHT22;29654;50.784;20.604;2023-07-30T20:26:10;25.20;50.90
43991;DHT22;29654;50.784;20.604;2023-07-30T20:31:13;25.20;51.50
43991;DHT22;29654;50.784;20.604;2023-07-30T20:36:17;25.10;50.80
43991;DHT22;29654;50.784;20.604;2023-07-30T20:41:20;25.10;51.10
43991;DHT22;29654;50.784;20.604;2023-07-30T20:46:22;25.00;50.90
43991;DHT22;29654;50.784;20.604;2023-07-30T20:51:27;24.90;51.00
43991;DHT22;29654;50.784;20.604;2023-07-30T20:56:29;24.90;51.40
43991;DHT22;29654;50.784;20.604;2023-07-30T21:01:32;24.80;51.40
43991;DHT22;29654;50.784;20.604;2023-07-30T21:06:36;24.80;51.40
43991;DHT22;29654;50.784;20.604;2023-07-30T21:11:42;24.80;51.80
43991;DHT22;29654;50.784;20.604;2023-07-30T21:16:44;24.70;51.70
43991;DHT22;29654;50.784;20.604;2023-07-30T21:21:48;24.80;51.90
43991;DHT22;29654;50.784;20.604;2023-07-30T21:26:51;24.70;52.10
43991;DHT22;29654;50.784;20.604;2023-07-30T21:31:54;24.70;52.00
43991;DHT22;29654;50.784;20.604;2023-07-30T21:36:58;24.70;52.00
43991;DHT22;29654;50.784;20.604;2023-07-30T21:42:00;24.70;52.30
43991;DHT22;29654;50.784;20.604;2023-07-30T21:47:04;24.70;52.20
43991;DHT22;29654;50.784;20.604;2023-07-30T21:52:22;24.70;52.40
43991;DHT22;29654;50.784;20.604;2023-07-30T21:57:25;24.70;53.50
43991;DHT22;29654;50.784;20.604;2023-07-30T22:02:28;24.70;52.70
43991;DHT22;29654;50.784;20.604;2023-07-30T22:07:32;24.70;52.80
43991;DHT22;29654;50.784;20.604;2023-07-30T22:12:34;24.70;53.00
43991;DHT22;29654;50.784;20.604;2023-07-30T22:17:37;24.70;53.00
43991;DHT22;29654;50.784;20.604;2023-07-30T22:22:41;24.70;53.00
43991;DHT22;29654;50.784;20.604;2023-07-30T22:27:43;24.70;53.80
43991;DHT22;29654;50.784;20.604;2023-07-30T22:32:46;24.70;53.00
43991;DHT22;29654;50.784;20.604;2023-07-30T22:37:50;24.70;53.10
43991;DHT22;29654;50.784;20.604;2023-07-30T22:42:52;24.70;53.20
43991;DHT22;29654;50.784;20.604;2023-07-30T22:47:55;24.70;53.10
43991;DHT22;29654;50.784;20.604;2023-07-30T22:52:59;24.70;53.10
43991;DHT22;29654;50.784;20.604;2023-07-30T22:58:01;24.60;53.10
43991;DHT22;29654;50.784;20.604;2023-07-30T23:03:04;24.60;53.10
43991;DHT22;29654;50.784;20.604;2023-07-30T23:08:08;24.60;53.10
43991;DHT22;29654;50.784;20.604;2023-07-30T23:13:10;24.50;53.20
43991;DHT22;29654;50.784;20.604;2023-07-30T23:18:12;24.50;53.20
43991;DHT22;29654;50.784;20.604;2023-07-30T23:23:16;24.50;53.20
43991;DHT22;29654;50.784;20.604;2023-07-30T23:28:19;24.50;53.40
43991;DHT22;29654;50.784;20.604;2023-07-30T23:33:22;24.40;53.30
43991;DHT22;29654;50.784;20.604;2023-07-30T23:38:26;24.40;53.30
43991;DHT22;29654;50.784;20.604;2023-07-30T23:43:28;24.30;53.50
43991;DHT22;29654;50.784;20.604;2023-07-30T23:48:31;24.30;53.50
43991;DHT22;29654;50.784;20.604;2023-07-30T23:53:35;24.30;53.50
43991;DHT22;29654;50.784;20.604;2023-07-30T23:58:37;24.30;53.70
